sensor_id;sensor_type;location;lat;lon;timestamp;temperature;humidity
2220;DHT22;1116;51.502;7.414;2024-03-06T00:01:07;8.90;72.60
2220;DHT22;1116;51.502;7.414;2024-03-06T00:03:37;8.90;72.20
2220;DHT22;1116;51.502;7.414;2024-03-06T00:06:07;8.90;71.00
2220;DHT22;1116;51.502;7.414;2024-03-06T00:08:40;8.90;72.20
2220;DHT22;1116;51.502;7.414;2024-03-06T00:11:10;8.80;72.40
2220;DHT22;1116;51.502;7.414;2024-03-06T00:13:40;8.80;72.30
2220;DHT22;1116;51.502;7.414;2024-03-06T00:16:10;8.80;72.30
2220;DHT22;1116;51.502;7.414;2024-03-06T00:18:43;8.70;70.80
2220;DHT22;1116;51.502;7.414;2024-03-06T00:21:13;8.70;71.00
2220;DHT22;1116;51.502;7.414;2024-03-06T00:23:46;8.60;71.40
2220;DHT22;1116;51.502;7.414;2024-03-06T00:26:16;8.70;70.90
2220;DHT22;1116;51.502;7.414;2024-03-06T00:28:46;8.70;71.30
2220;DHT22;1116;51.502;7.414;2024-03-06T00:31:16;8.70;71.90
2220;DHT22;1116;51.502;7.414;2024-03-06T00:33:47;8.70;70.50
2220;DHT22;1116;51.502;7.414;2024-03-06T00:36:17;8.70;71.40
2220;DHT22;1116;51.502;7.414;2024-03-06T00:38:52;8.50;69.40
2220;DHT22;1116;51.502;7.414;2024-03-06T00:41:22;8.50;70.80
2220;DHT22;1116;51.502;7.414;2024-03-06T00:43:52;8.30;69.40
2220;DHT22;1116;51.502;7.414;2024-03-06T00:46:22;8.40;71.50
2220;DHT22;1116;51.502;7.414;2024-03-06T00:48:52;8.40;71.70
2220;DHT22;1116;51.502;7.414;2024-03-06T00:51:23;8.50;71.80
2220;DHT22;1116;51.502;7.414;2024-03-06T00:54:10;8.40;70.70
2220;DHT22;1116;51.502;7.414;2024-03-06T00:56:40;8.30;70.50
2220;DHT22;1116;51.502;7.414;2024-03-06T00:59:10;8.20;70.20
2220;DHT22;1116;51.502;7.414;2024-03-06T01:01:40;8.20;70.70
2220;DHT22;1116;51.502;7.414;2024-03-06T01:04:10;8.20;70.30
2220;DHT22;1116;51.502;7.414;2024-03-06T01:06:41;8.10;69.80
2220;DHT22;1116;51.502;7.414;2024-03-06T01:09:15;8.20;70.30
2220;DHT22;1116;51.502;7.414;2024-03-06T01:11:45;8.20;69.90
2220;DHT22;1116;51.502;7.414;2024-03-06T01:14:16;8.20;68.60
2220;DHT22;1116;51.502;7.414;2024-03-06T01:16:46;8.10;68.60
2220;DHT22;1116;51.502;7.414;2024-03-06T01:19:16;8.10;69.20
2220;DHT22;1116;51.502;7.414;2024-03-06T01:21:46;8.10;69.50
2220;DHT22;1116;51.502;7.414;2024-03-06T01:24:19;8.20;70.70
2220;DHT22;1116;51.502;7.414;2024-03-06T01:26:49;8.30;71.20
2220;DHT22;1116;51.502;7.414;2024-03-06T01:29:19;8.20;68.80
2220;DHT22;1116;51.502;7.414;2024-03-06T01:31:49;8.30;69.10
2220;DHT22;1116;51.502;7.414;2024-03-06T01:34:19;8.20;69.10
2220;DHT22;1116;51.502;7.414;2024-03-06T01:36:49;8.30;69.70
2220;DHT22;1116;51.502;7.414;2024-03-06T01:39:22;8.30;67.90
2220;DHT22;1116;51.502;7.414;2024-03-06T01:41:52;8.30;70.10
2220;DHT22;1116;51.502;7.414;2024-03-06T01:44:22;8.40;69.70
2220;DHT22;1116;51.502;7.414;2024-03-06T01:46:52;8.40;68.80
2220;DHT22;1116;51.502;7.414;2024-03-06T01:49:23;8.40;69.20
2220;DHT22;1116;51.502;7.414;2024-03-06T01:52:07;8.30;67.80
2220;DHT22;1116;51.502;7.414;2024-03-06T01:54:42;8.30;69.70
2220;DHT22;1116;51.502;7.414;2024-03-06T01:57:13;8.40;70.20
2220;DHT22;1116;51.502;7.414;2024-03-06T01:59:45;8.30;69.30
2220;DHT22;1116;51.502;7.414;2024-03-06T02:02:16;8.30;68.30
2220;DHT22;1116;51.502;7.414;2024-03-06T02:04:46;8.10;68.90
2220;DHT22;1116;51.502;7.414;2024-03-06T02:07:17;8.10;69.50
2220;DHT22;1116;51.502;7.414;2024-03-06T02:09:51;8.20;68.60
2220;DHT22;1116;51.502;7.414;2024-03-06T02:12:21;8.20;68.80
2220;DHT22;1116;51.502;7.414;2024-03-06T02:14:51;8.20;69.40
2220;DHT22;1116;51.502;7.414;2024-03-06T02:17:21;8.20;70.10
2220;DHT22;1116;51.502;7.414;2024-03-06T02:19:56;8.40;71.10
2220;DHT22;1116;51.502;7.414;2024-03-06T02:22:30;8.40;70.00
2220;DHT22;1116;51.502;7.414;2024-03-06T02:25:00;8.40;69.10
2220;DHT22;1116;51.502;7.414;2024-03-06T02:27:30;8.40;69.50
2220;DHT22;1116;51.502;7.414;2024-03-06T02:30:00;8.40;68.70
2220;DHT22;1116;51.502;7.414;2024-03-06T02:32:30;8.40;67.90
2220;DHT22;1116;51.502;7.414;2024-03-06T02:35:01;8.30;68.80
2220;DHT22;1116;51.502;7.414;2024-03-06T02:37:38;8.30;68.20
2220;DHT22;1116;51.502;7.414;2024-03-06T02:40:09;8.30;68.90
2220;DHT22;1116;51.502;7.414;2024-03-06T02:42:39;8.20;67.70
2220;DHT22;1116;51.502;7.414;2024-03-06T02:45:09;8.20;68.20
2220;DHT22;1116;51.502;7.414;2024-03-06T02:47:39;8.20;67.80
2220;DHT22;1116;51.502;7.414;2024-03-06T02:50:09;8.10;67.90
2220;DHT22;1116;51.502;7.414;2024-03-06T02:52:42;8.10;69.40
2220;DHT22;1116;51.502;7.414;2024-03-06T02:55:12;8.20;69.40
2220;DHT22;1116;51.502;7.414;2024-03-06T02:57:42;8.20;69.40
2220;DHT22;1116;51.502;7.414;2024-03-06T03:00:13;8.30;69.40
2220;DHT22;1116;51.502;7.414;2024-03-06T03:02:44;8.30;69.10
2220;DHT22;1116;51.502;7.414;2024-03-06T03:05:15;8.30;68.40
2220;DHT22;1116;51.502;7.414;2024-03-06T03:07:47;8.30;68.80
2220;DHT22;1116;51.502;7.414;2024-03-06T03:10:18;8.40;68.80
2220;DHT22;1116;51.502;7.414;2024-03-06T03:12:48;8.40;68.00
2220;DHT22;1116;51.502;7.414;2024-03-06T03:15:18;8.30;68.30
2220;DHT22;1116;51.502;7.414;2024-03-06T03:17:48;8.20;67.40
2220;DHT22;1116;51.502;7.414;2024-03-06T03:20:18;8.10;67.70
2220;DHT22;1116;51.502;7.414;2024-03-06T03:22:51;8.10;68.00
2220;DHT22;1116;51.502;7.414;2024-03-06T03:25:21;8.00;68.60
2220;DHT22;1116;51.502;7.414;2024-03-06T03:27:52;8.00;68.10
2220;DHT22;1116;51.502;7.414;2024-03-06T03:30:22;8.00;68.40
2220;DHT22;1116;51.502;7.414;2024-03-06T03:32:52;7.80;67.20
2220;DHT22;1116;51.502;7.414;2024-03-06T03:35:22;7.70;68.80
2220;DHT22;1116;51.502;7.414;2024-03-06T03:37:55;7.70;67.90
2220;DHT22;1116;51.502;7.414;2024-03-06T03:40:25;7.70;67.60
2220;DHT22;1116;51.502;7.414;2024-03-06T03:42:55;7.50;66.40
2220;DHT22;1116;51.502;7.414;2024-03-06T03:45:25;7.40;66.00
2220;DHT22;1116;51.502;7.414;2024-03-06T03:47:56;7.30;66.90
2220;DHT22;1116;51.502;7.414;2024-03-06T03:50:26;7.30;66.80
2220;DHT22;1116;51.502;7.414;2024-03-06T03:52:58;7.20;68.30
2220;DHT22;1116;51.502;7.414;2024-03-06T03:55:28;7.30;68.30
2220;DHT22;1116;51.502;7.414;2024-03-06T03:57:59;7.30;68.10
2220;DHT22;1116;51.502;7.414;2024-03-06T04:00:29;7.30;68.70
2220;DHT22;1116;51.502;7.414;2024-03-06T04:02:59;7.30;66.90
2220;DHT22;1116;51.502;7.414;2024-03-06T04:05:29;7.30;68.70
2220;DHT22;1116;51.502;7.414;2024-03-06T04:08:02;7.20;67.00
2220;DHT22;1116;51.502;7.414;2024-03-06T04:10:32;7.20;67.90
2220;DHT22;1116;51.502;7.414;2024-03-06T04:13:06;7.20;67.50
2220;DHT22;1116;51.502;7.414;2024-03-06T04:15:37;7.10;66.20
2220;DHT22;1116;51.502;7.414;2024-03-06T04:18:07;7.10;66.20
2220;DHT22;1116;51.502;7.414;2024-03-06T04:20:37;7.00;65.80
2220;DHT22;1116;51.502;7.414;2024-03-06T04:23:10;7.10;68.00
2220;DHT22;1116;51.502;7.414;2024-03-06T04:25:40;7.20;68.00
2220;DHT22;1116;51.502;7.414;2024-03-06T04:28:10;7.20;67.30
2220;DHT22;1116;51.502;7.414;2024-03-06T04:30:40;7.30;67.30
2220;DHT22;1116;51.502;7.414;2024-03-06T04:33:10;7.30;66.50
2220;DHT22;1116;51.502;7.414;2024-03-06T04:35:42;7.30;67.10
2220;DHT22;1116;51.502;7.414;2024-03-06T04:38:14;7.40;67.20
2220;DHT22;1116;51.502;7.414;2024-03-06T04:40:45;7.50;67.40
2220;DHT22;1116;51.502;7.414;2024-03-06T04:43:15;7.60;67.00
2220;DHT22;1116;51.502;7.414;2024-03-06T04:45:45;7.60;67.60
2220;DHT22;1116;51.502;7.414;2024-03-06T04:48:15;7.60;66.00
2220;DHT22;1116;51.502;7.414;2024-03-06T04:50:45;7.50;66.10
2220;DHT22;1116;51.502;7.414;2024-03-06T04:53:18;7.50;66.80
2220;DHT22;1116;51.502;7.414;2024-03-06T04:55:49;7.60;67.20
2220;DHT22;1116;51.502;7.414;2024-03-06T04:58:19;7.70;64.70
2220;DHT22;1116;51.502;7.414;2024-03-06T05:00:49;7.60;66.00
2220;DHT22;1116;51.502;7.414;2024-03-06T05:03:19;7.70;66.60
2220;DHT22;1116;51.502;7.414;2024-03-06T05:06:04;7.70;66.10
2220;DHT22;1116;51.502;7.414;2024-03-06T05:08:51;7.70;65.70
2220;DHT22;1116;51.502;7.414;2024-03-06T05:11:35;7.60;64.70
2220;DHT22;1116;51.502;7.414;2024-03-06T05:14:20;7.60;66.30
2220;DHT22;1116;51.502;7.414;2024-03-06T05:17:04;7.60;66.40
2220;DHT22;1116;51.502;7.414;2024-03-06T05:19:51;7.50;65.60
2220;DHT22;1116;51.502;7.414;2024-03-06T05:22:35;7.30;67.20
2220;DHT22;1116;51.502;7.414;2024-03-06T05:25:22;7.40;67.30
2220;DHT22;1116;51.502;7.414;2024-03-06T05:28:06;7.30;66.30
2220;DHT22;1116;51.502;7.414;2024-03-06T05:30:50;7.30;67.90
2220;DHT22;1116;51.502;7.414;2024-03-06T05:33:34;7.40;67.70
2220;DHT22;1116;51.502;7.414;2024-03-06T05:36:18;7.40;67.30
2220;DHT22;1116;51.502;7.414;2024-03-06T05:39:02;7.30;65.80
2220;DHT22;1116;51.502;7.414;2024-03-06T05:41:50;7.10;65.40
2220;DHT22;1116;51.502;7.414;2024-03-06T05:44:34;6.90;66.10
2220;DHT22;1116;51.502;7.414;2024-03-06T05:47:18;6.90;67.50
2220;DHT22;1116;51.502;7.414;2024-03-06T05:50:02;6.80;66.70
2220;DHT22;1116;51.502;7.414;2024-03-06T05:52:47;6.90;67.70
2220;DHT22;1116;51.502;7.414;2024-03-06T05:55:31;6.90;66.40
2220;DHT22;1116;51.502;7.414;2024-03-06T05:58:18;6.90;67.40
2220;DHT22;1116;51.502;7.414;2024-03-06T06:00:48;6.90;67.60
2220;DHT22;1116;51.502;7.414;2024-03-06T06:03:18;6.80;64.80
2220;DHT22;1116;51.502;7.414;2024-03-06T06:05:48;6.70;67.50
2220;DHT22;1116;51.502;7.414;2024-03-06T06:08:18;6.80;68.10
2220;DHT22;1116;51.502;7.414;2024-03-06T06:10:49;6.80;64.90
2220;DHT22;1116;51.502;7.414;2024-03-06T06:13:22;6.60;66.40
2220;DHT22;1116;51.502;7.414;2024-03-06T06:15:52;6.70;67.10
2220;DHT22;1116;51.502;7.414;2024-03-06T06:18:22;6.50;65.00
2220;DHT22;1116;51.502;7.414;2024-03-06T06:20:52;6.50;65.80
2220;DHT22;1116;51.502;7.414;2024-03-06T06:23:22;6.60;66.90
2220;DHT22;1116;51.502;7.414;2024-03-06T06:25:53;6.50;66.00
2220;DHT22;1116;51.502;7.414;2024-03-06T06:28:25;6.60;67.10
2220;DHT22;1116;51.502;7.414;2024-03-06T06:30:55;6.50;64.10
2220;DHT22;1116;51.502;7.414;2024-03-06T06:33:25;6.50;66.40
2220;DHT22;1116;51.502;7.414;2024-03-06T06:35:56;6.70;67.70
2220;DHT22;1116;51.502;7.414;2024-03-06T06:38:26;6.70;64.50
2220;DHT22;1116;51.502;7.414;2024-03-06T06:40:56;6.70;66.10
2220;DHT22;1116;51.502;7.414;2024-03-06T06:43:29;6.80;66.70
2220;DHT22;1116;51.502;7.414;2024-03-06T06:45:59;6.80;66.60
2220;DHT22;1116;51.502;7.414;2024-03-06T06:48:32;6.80;66.70
2220;DHT22;1116;51.502;7.414;2024-03-06T06:51:02;6.80;67.00
2220;DHT22;1116;51.502;7.414;2024-03-06T06:53:32;6.80;66.60
2220;DHT22;1116;51.502;7.414;2024-03-06T06:56:03;6.80;67.60
2220;DHT22;1116;51.502;7.414;2024-03-06T06:58:37;6.90;66.60
2220;DHT22;1116;51.502;7.414;2024-03-06T07:01:09;6.90;66.40
2220;DHT22;1116;51.502;7.414;2024-03-06T07:03:40;7.00;66.30
2220;DHT22;1116;51.502;7.414;2024-03-06T07:06:10;7.00;66.40
2220;DHT22;1116;51.502;7.414;2024-03-06T07:08:40;7.10;66.60
2220;DHT22;1116;51.502;7.414;2024-03-06T07:11:10;7.20;66.20
2220;DHT22;1116;51.502;7.414;2024-03-06T07:13:43;7.20;65.50
2220;DHT22;1116;51.502;7.414;2024-03-06T07:16:13;7.10;64.90
2220;DHT22;1116;51.502;7.414;2024-03-06T07:18:44;7.20;65.60
2220;DHT22;1116;51.502;7.414;2024-03-06T07:21:14;7.30;66.60
2220;DHT22;1116;51.502;7.414;2024-03-06T07:23:44;7.60;66.40
2220;DHT22;1116;51.502;7.414;2024-03-06T07:26:15;7.70;66.40
2220;DHT22;1116;51.502;7.414;2024-03-06T07:28:48;7.80;65.50
2220;DHT22;1116;51.502;7.414;2024-03-06T07:31:19;7.80;64.80
2220;DHT22;1116;51.502;7.414;2024-03-06T07:33:49;7.90;65.40
2220;DHT22;1116;51.502;7.414;2024-03-06T07:36:20;8.00;65.70
2220;DHT22;1116;51.502;7.414;2024-03-06T07:38:50;8.10;65.40
2220;DHT22;1116;51.502;7.414;2024-03-06T07:41:21;8.20;65.10
2220;DHT22;1116;51.502;7.414;2024-03-06T07:43:54;8.30;65.20
2220;DHT22;1116;51.502;7.414;2024-03-06T07:46:24;8.50;65.40
2220;DHT22;1116;51.502;7.414;2024-03-06T07:48:54;8.90;65.70
2220;DHT22;1116;51.502;7.414;2024-03-06T07:51:24;10.20;64.20
2220;DHT22;1116;51.502;7.414;2024-03-06T07:53:54;11.70;57.00
2220;DHT22;1116;51.502;7.414;2024-03-06T07:56:25;13.20;50.50
2220;DHT22;1116;51.502;7.414;2024-03-06T07:58:58;13.80;40.50
2220;DHT22;1116;51.502;7.414;2024-03-06T08:01:28;13.80;41.90
2220;DHT22;1116;51.502;7.414;2024-03-06T08:04:00;14.40;41.60
2220;DHT22;1116;51.502;7.414;2024-03-06T08:06:30;15.30;37.00
2220;DHT22;1116;51.502;7.414;2024-03-06T08:09:01;15.90;36.20
2220;DHT22;1116;51.502;7.414;2024-03-06T08:11:32;16.20;32.70
2220;DHT22;1116;51.502;7.414;2024-03-06T08:14:06;16.20;35.30
2220;DHT22;1116;51.502;7.414;2024-03-06T08:16:36;16.20;29.90
2220;DHT22;1116;51.502;7.414;2024-03-06T08:19:06;16.10;30.90
2220;DHT22;1116;51.502;7.414;2024-03-06T08:21:36;17.00;29.40
2220;DHT22;1116;51.502;7.414;2024-03-06T08:24:06;17.40;28.10
2220;DHT22;1116;51.502;7.414;2024-03-06T08:26:37;17.70;27.20
2220;DHT22;1116;51.502;7.414;2024-03-06T08:29:10;17.90;27.10
2220;DHT22;1116;51.502;7.414;2024-03-06T08:31:40;18.00;24.50
2220;DHT22;1116;51.502;7.414;2024-03-06T08:34:10;18.20;25.70
2220;DHT22;1116;51.502;7.414;2024-03-06T08:36:40;17.90;24.10
2220;DHT22;1116;51.502;7.414;2024-03-06T08:39:10;18.80;23.80
2220;DHT22;1116;51.502;7.414;2024-03-06T08:41:42;19.40;24.50
2220;DHT22;1116;51.502;7.414;2024-03-06T08:44:14;19.90;23.60
2220;DHT22;1116;51.502;7.414;2024-03-06T08:46:45;20.60;22.40
2220;DHT22;1116;51.502;7.414;2024-03-06T08:49:15;20.80;20.90
2220;DHT22;1116;51.502;7.414;2024-03-06T08:51:45;21.00;18.50
2220;DHT22;1116;51.502;7.414;2024-03-06T08:54:15;21.30;18.70
2220;DHT22;1116;51.502;7.414;2024-03-06T08:56:45;21.10;18.50
2220;DHT22;1116;51.502;7.414;2024-03-06T08:59:18;21.40;18.30
2220;DHT22;1116;51.502;7.414;2024-03-06T09:01:48;21.90;18.30
2220;DHT22;1116;51.502;7.414;2024-03-06T09:04:18;22.10;16.90
2220;DHT22;1116;51.502;7.414;2024-03-06T09:06:48;22.30;17.90
2220;DHT22;1116;51.502;7.414;2024-03-06T09:09:18;22.40;14.30
2220;DHT22;1116;51.502;7.414;2024-03-06T09:11:48;22.30;14.20
2220;DHT22;1116;51.502;7.414;2024-03-06T09:14:21;22.40;15.90
2220;DHT22;1116;51.502;7.414;2024-03-06T09:16:51;23.00;14.80
2220;DHT22;1116;51.502;7.414;2024-03-06T09:19:22;23.70;15.30
2220;DHT22;1116;51.502;7.414;2024-03-06T09:21:52;23.60;14.10
2220;DHT22;1116;51.502;7.414;2024-03-06T09:24:22;23.60;13.10
2220;DHT22;1116;51.502;7.414;2024-03-06T09:26:53;22.40;16.40
2220;DHT22;1116;51.502;7.414;2024-03-06T09:29:25;21.90;15.90
2220;DHT22;1116;51.502;7.414;2024-03-06T09:31:55;22.60;14.50
2220;DHT22;1116;51.502;7.414;2024-03-06T09:34:26;22.20;15.80
2220;DHT22;1116;51.502;7.414;2024-03-06T09:36:56;22.20;14.10
2220;DHT22;1116;51.502;7.414;2024-03-06T09:39:26;22.20;14.10
2220;DHT22;1116;51.502;7.414;2024-03-06T09:41:56;23.20;14.50
2220;DHT22;1116;51.502;7.414;2024-03-06T09:44:29;23.10;12.40
2220;DHT22;1116;51.502;7.414;2024-03-06T09:47:01;23.30;13.50
2220;DHT22;1116;51.502;7.414;2024-03-06T09:49:33;23.40;15.00
2220;DHT22;1116;51.502;7.414;2024-03-06T09:52:04;23.20;12.60
2220;DHT22;1116;51.502;7.414;2024-03-06T09:54:35;22.60;13.40
2220;DHT22;1116;51.502;7.414;2024-03-06T09:57:06;22.70;14.50
2220;DHT22;1116;51.502;7.414;2024-03-06T09:59:38;23.30;14.90
2220;DHT22;1116;51.502;7.414;2024-03-06T10:02:19;23.00;14.00
2220;DHT22;1116;51.502;7.414;2024-03-06T10:04:58;23.30;14.90
2220;DHT22;1116;51.502;7.414;2024-03-06T10:07:28;24.10;10.50
2220;DHT22;1116;51.502;7.414;2024-03-06T10:09:58;24.30;10.30
2220;DHT22;1116;51.502;7.414;2024-03-06T10:12:29;24.40;9.50
2220;DHT22;1116;51.502;7.414;2024-03-06T10:15:02;24.10;9.40
2220;DHT22;1116;51.502;7.414;2024-03-06T10:17:32;23.40;10.20
2220;DHT22;1116;51.502;7.414;2024-03-06T10:20:17;22.10;11.50
2220;DHT22;1116;51.502;7.414;2024-03-06T10:22:50;21.10;14.30
2220;DHT22;1116;51.502;7.414;2024-03-06T10:25:25;19.90;16.10
2220;DHT22;1116;51.502;7.414;2024-03-06T10:28:05;19.40;18.10
2220;DHT22;1116;51.502;7.414;2024-03-06T10:30:40;18.90;18.30
2220;DHT22;1116;51.502;7.414;2024-03-06T10:33:13;17.90;19.40
2220;DHT22;1116;51.502;7.414;2024-03-06T10:35:47;16.70;20.50
2220;DHT22;1116;51.502;7.414;2024-03-06T10:38:20;16.30;25.30
2220;DHT22;1116;51.502;7.414;2024-03-06T10:40:53;16.00;25.00
2220;DHT22;1116;51.502;7.414;2024-03-06T10:43:25;15.80;27.10
2220;DHT22;1116;51.502;7.414;2024-03-06T10:46:00;15.70;28.40
2220;DHT22;1116;51.502;7.414;2024-03-06T10:48:31;15.40;27.60
2220;DHT22;1116;51.502;7.414;2024-03-06T10:51:02;15.40;26.40
2220;DHT22;1116;51.502;7.414;2024-03-06T10:53:34;15.60;27.70
2220;DHT22;1116;51.502;7.414;2024-03-06T10:56:08;15.70;27.20
2220;DHT22;1116;51.502;7.414;2024-03-06T10:58:39;15.50;27.30
2220;DHT22;1116;51.502;7.414;2024-03-06T11:01:12;15.30;26.50
2220;DHT22;1116;51.502;7.414;2024-03-06T11:03:44;15.20;27.60
2220;DHT22;1116;51.502;7.414;2024-03-06T11:06:15;15.20;27.60
2220;DHT22;1116;51.502;7.414;2024-03-06T11:08:45;15.10;28.10
2220;DHT22;1116;51.502;7.414;2024-03-06T11:11:22;15.10;29.30
2220;DHT22;1116;51.502;7.414;2024-03-06T11:14:00;15.10;29.30
2220;DHT22;1116;51.502;7.414;2024-03-06T11:16:57;15.00;29.30
2220;DHT22;1116;51.502;7.414;2024-03-06T11:19:30;14.70;29.00
2220;DHT22;1116;51.502;7.414;2024-03-06T11:22:01;14.80;29.80
2220;DHT22;1116;51.502;7.414;2024-03-06T11:24:33;15.60;28.70
2220;DHT22;1116;51.502;7.414;2024-03-06T11:27:04;16.20;28.80
2220;DHT22;1116;51.502;7.414;2024-03-06T11:30:06;16.50;27.90
2220;DHT22;1116;51.502;7.414;2024-03-06T11:32:57;16.20;26.80
2220;DHT22;1116;51.502;7.414;2024-03-06T11:35:29;16.10;26.60
2220;DHT22;1116;51.502;7.414;2024-03-06T11:37:59;15.80;26.60
2220;DHT22;1116;51.502;7.414;2024-03-06T11:40:29;15.70;27.10
2220;DHT22;1116;51.502;7.414;2024-03-06T11:43:24;15.50;26.80
2220;DHT22;1116;51.502;7.414;2024-03-06T11:46:07;15.40;27.20
2220;DHT22;1116;51.502;7.414;2024-03-06T11:48:40;15.60;29.80
2220;DHT22;1116;51.502;7.414;2024-03-06T11:51:10;16.50;29.60
2220;DHT22;1116;51.502;7.414;2024-03-06T11:53:41;17.80;25.00
2220;DHT22;1116;51.502;7.414;2024-03-06T11:56:11;18.50;23.10
2220;DHT22;1116;51.502;7.414;2024-03-06T11:58:41;18.80;20.10
2220;DHT22;1116;51.502;7.414;2024-03-06T12:01:15;19.00;19.60
2220;DHT22;1116;51.502;7.414;2024-03-06T12:03:48;19.00;20.70
2220;DHT22;1116;51.502;7.414;2024-03-06T12:06:18;18.40;21.00
2220;DHT22;1116;51.502;7.414;2024-03-06T12:08:49;17.90;21.30
2220;DHT22;1116;51.502;7.414;2024-03-06T12:11:19;17.50;19.60
2220;DHT22;1116;51.502;7.414;2024-03-06T12:13:51;18.00;21.40
2220;DHT22;1116;51.502;7.414;2024-03-06T12:16:21;18.50;18.60
2220;DHT22;1116;51.502;7.414;2024-03-06T12:18:57;18.30;20.70
2220;DHT22;1116;51.502;7.414;2024-03-06T12:21:29;18.60;20.30
2220;DHT22;1116;51.502;7.414;2024-03-06T12:24:04;18.90;18.80
2220;DHT22;1116;51.502;7.414;2024-03-06T12:26:36;19.60;17.40
2220;DHT22;1116;51.502;7.414;2024-03-06T12:29:07;19.60;17.40
2220;DHT22;1116;51.502;7.414;2024-03-06T12:31:39;19.40;17.30
2220;DHT22;1116;51.502;7.414;2024-03-06T12:34:16;19.80;19.70
2220;DHT22;1116;51.502;7.414;2024-03-06T12:36:46;19.40;15.50
2220;DHT22;1116;51.502;7.414;2024-03-06T12:39:17;19.30;16.40
2220;DHT22;1116;51.502;7.414;2024-03-06T12:41:50;18.80;17.20
2220;DHT22;1116;51.502;7.414;2024-03-06T12:44:20;17.90;17.80
2220;DHT22;1116;51.502;7.414;2024-03-06T12:46:50;18.30;20.90
2220;DHT22;1116;51.502;7.414;2024-03-06T12:49:23;19.00;19.70
2220;DHT22;1116;51.502;7.414;2024-03-06T12:51:53;19.90;19.60
2220;DHT22;1116;51.502;7.414;2024-03-06T12:54:23;20.20;15.50
2220;DHT22;1116;51.502;7.414;2024-03-06T12:56:53;19.80;17.60
2220;DHT22;1116;51.502;7.414;2024-03-06T12:59:23;19.20;17.80
2220;DHT22;1116;51.502;7.414;2024-03-06T13:01:53;18.30;20.20
2220;DHT22;1116;51.502;7.414;2024-03-06T13:04:27;17.70;20.70
2220;DHT22;1116;51.502;7.414;2024-03-06T13:06:57;17.00;21.40
2220;DHT22;1116;51.502;7.414;2024-03-06T13:09:27;16.70;24.60
2220;DHT22;1116;51.502;7.414;2024-03-06T13:11:57;16.60;26.10
2220;DHT22;1116;51.502;7.414;2024-03-06T13:14:27;17.20;23.50
2220;DHT22;1116;51.502;7.414;2024-03-06T13:16:57;17.70;23.90
2220;DHT22;1116;51.502;7.414;2024-03-06T13:19:30;18.20;22.80
2220;DHT22;1116;51.502;7.414;2024-03-06T13:22:00;18.50;22.90
2220;DHT22;1116;51.502;7.414;2024-03-06T13:24:34;18.50;21.80
2220;DHT22;1116;51.502;7.414;2024-03-06T13:27:10;19.00;20.90
2220;DHT22;1116;51.502;7.414;2024-03-06T13:29:40;19.20;19.10
2220;DHT22;1116;51.502;7.414;2024-03-06T13:32:10;19.00;19.80
2220;DHT22;1116;51.502;7.414;2024-03-06T13:34:43;19.10;22.20
2220;DHT22;1116;51.502;7.414;2024-03-06T13:37:13;19.60;18.00
2220;DHT22;1116;51.502;7.414;2024-03-06T13:39:44;19.30;18.60
2220;DHT22;1116;51.502;7.414;2024-03-06T13:42:14;19.00;19.20
2220;DHT22;1116;51.502;7.414;2024-03-06T13:44:45;19.00;18.50
2220;DHT22;1116;51.502;7.414;2024-03-06T13:47:15;18.00;21.50
2220;DHT22;1116;51.502;7.414;2024-03-06T13:49:48;17.50;22.20
2220;DHT22;1116;51.502;7.414;2024-03-06T13:52:18;17.10;23.00
2220;DHT22;1116;51.502;7.414;2024-03-06T13:54:51;16.80;24.20
2220;DHT22;1116;51.502;7.414;2024-03-06T13:57:21;16.50;25.10
2220;DHT22;1116;51.502;7.414;2024-03-06T13:59:51;16.00;23.70
2220;DHT22;1116;51.502;7.414;2024-03-06T14:02:21;15.70;24.90
2220;DHT22;1116;51.502;7.414;2024-03-06T14:04:54;15.70;26.00
2220;DHT22;1116;51.502;7.414;2024-03-06T14:07:24;15.30;27.50
2220;DHT22;1116;51.502;7.414;2024-03-06T14:09:54;15.10;24.40
2220;DHT22;1116;51.502;7.414;2024-03-06T14:12:28;15.00;27.10
2220;DHT22;1116;51.502;7.414;2024-03-06T14:14:58;15.10;26.80
2220;DHT22;1116;51.502;7.414;2024-03-06T14:17:28;15.20;26.90
2220;DHT22;1116;51.502;7.414;2024-03-06T14:20:01;15.10;28.30
2220;DHT22;1116;51.502;7.414;2024-03-06T14:22:32;15.20;27.70
2220;DHT22;1116;51.502;7.414;2024-03-06T14:25:03;15.20;27.70
2220;DHT22;1116;51.502;7.414;2024-03-06T14:27:34;15.50;26.20
2220;DHT22;1116;51.502;7.414;2024-03-06T14:30:06;15.80;27.40
2220;DHT22;1116;51.502;7.414;2024-03-06T14:32:38;15.60;23.30
2220;DHT22;1116;51.502;7.414;2024-03-06T14:35:11;15.60;24.90
2220;DHT22;1116;51.502;7.414;2024-03-06T14:37:42;15.70;24.80
2220;DHT22;1116;51.502;7.414;2024-03-06T14:40:12;15.80;23.10
2220;DHT22;1116;51.502;7.414;2024-03-06T14:42:42;15.80;24.80
2220;DHT22;1116;51.502;7.414;2024-03-06T14:45:12;15.80;24.80
2220;DHT22;1116;51.502;7.414;2024-03-06T14:47:42;15.80;24.90
2220;DHT22;1116;51.502;7.414;2024-03-06T14:50:15;15.70;24.70
2220;DHT22;1116;51.502;7.414;2024-03-06T14:52:45;15.40;24.60
2220;DHT22;1116;51.502;7.414;2024-03-06T14:55:15;15.40;24.50
2220;DHT22;1116;51.502;7.414;2024-03-06T14:57:46;15.20;24.40
2220;DHT22;1116;51.502;7.414;2024-03-06T15:00:16;15.40;24.60
2220;DHT22;1116;51.502;7.414;2024-03-06T15:02:48;15.50;24.60
2220;DHT22;1116;51.502;7.414;2024-03-06T15:05:21;15.60;24.70
2220;DHT22;1116;51.502;7.414;2024-03-06T15:07:51;15.50;24.60
2220;DHT22;1116;51.502;7.414;2024-03-06T15:10:21;15.30;24.90
2220;DHT22;1116;51.502;7.414;2024-03-06T15:12:51;15.00;24.70
2220;DHT22;1116;51.502;7.414;2024-03-06T15:15:23;15.20;24.70
2220;DHT22;1116;51.502;7.414;2024-03-06T15:17:53;15.30;25.60
2220;DHT22;1116;51.502;7.414;2024-03-06T15:20:26;15.20;24.40
2220;DHT22;1116;51.502;7.414;2024-03-06T15:22:57;15.40;26.00
2220;DHT22;1116;51.502;7.414;2024-03-06T15:25:26;15.50;26.80
2220;DHT22;1116;51.502;7.414;2024-03-06T15:27:56;15.40;24.60
2220;DHT22;1116;51.502;7.414;2024-03-06T15:30:26;15.20;23.40
2220;DHT22;1116;51.502;7.414;2024-03-06T15:32:58;15.00;25.50
2220;DHT22;1116;51.502;7.414;2024-03-06T15:35:32;14.80;26.00
2220;DHT22;1116;51.502;7.414;2024-03-06T15:38:03;14.80;25.60
2220;DHT22;1116;51.502;7.414;2024-03-06T15:40:33;14.70;26.50
2220;DHT22;1116;51.502;7.414;2024-03-06T15:43:03;14.60;27.50
2220;DHT22;1116;51.502;7.414;2024-03-06T15:45:33;14.20;28.10
2220;DHT22;1116;51.502;7.414;2024-03-06T15:48:04;14.20;29.00
2220;DHT22;1116;51.502;7.414;2024-03-06T15:50:43;14.00;30.00
2220;DHT22;1116;51.502;7.414;2024-03-06T15:53:13;13.90;29.70
2220;DHT22;1116;51.502;7.414;2024-03-06T15:55:44;13.70;30.00
2220;DHT22;1116;51.502;7.414;2024-03-06T15:58:14;13.70;30.20
2220;DHT22;1116;51.502;7.414;2024-03-06T16:00:44;13.80;31.30
2220;DHT22;1116;51.502;7.414;2024-03-06T16:03:14;13.60;30.60
2220;DHT22;1116;51.502;7.414;2024-03-06T16:05:47;13.60;29.70
2220;DHT22;1116;51.502;7.414;2024-03-06T16:08:28;13.60;32.00
2220;DHT22;1116;51.502;7.414;2024-03-06T16:10:58;13.50;31.80
2220;DHT22;1116;51.502;7.414;2024-03-06T16:13:28;13.30;30.00
2220;DHT22;1116;51.502;7.414;2024-03-06T16:15:58;13.30;32.30
2220;DHT22;1116;51.502;7.414;2024-03-06T16:18:28;13.30;33.50
2220;DHT22;1116;51.502;7.414;2024-03-06T16:21:01;13.30;32.50
2220;DHT22;1116;51.502;7.414;2024-03-06T16:23:32;13.20;33.60
2220;DHT22;1116;51.502;7.414;2024-03-06T16:26:02;13.20;33.60
2220;DHT22;1116;51.502;7.414;2024-03-06T16:28:33;13.20;33.60
2220;DHT22;1116;51.502;7.414;2024-03-06T16:31:03;13.20;34.50
2220;DHT22;1116;51.502;7.414;2024-03-06T16:33:34;13.00;33.40
2220;DHT22;1116;51.502;7.414;2024-03-06T16:36:07;13.10;35.60
2220;DHT22;1116;51.502;7.414;2024-03-06T16:38:37;13.20;35.50
2220;DHT22;1116;51.502;7.414;2024-03-06T16:41:08;13.10;35.60